Time;durP1;ratioP1;P1;durP2;ratioP2;P2;SDS_P1;SDS_P2;PMS_P1;PMS_P2;Temp;Humidity;BMP_temperature;BMP_pressure;BME280_temperature;BME280_humidity;BME280_pressure;Samples;Min_cycle;Max_cycle;Signal;HPM_P1;HPM_P2
2023/03/01 00:01:17;;;;;;;5.75;2.80;;;1.20;99.90;;;;;;4959334;28;20282;-64
2023/03/01 00:03:47;;;;;;;1.92;1.67;;;1.20;99.90;;;;;;4953493;28;20214;-64
2023/03/01 00:06:15;;;;;;;2.28;2.08;;;1.20;99.90;;;;;;4961691;28;20203;-64
2023/03/01 00:08:43;;;;;;;3.03;1.83;;;1.30;99.90;;;;;;4958146;28;20605;-63
2023/03/01 00:11:14;;;;;;;3.38;2.05;;;1.40;99.90;;;;;;4952106;28;20288;-63
2023/03/01 00:13:43;;;;;;;1.92;1.75;;;1.70;99.90;;;;;;4959221;28;20214;-63
2023/03/01 00:16:17;;;;;;;2.53;1.90;;;1.70;99.90;;;;;;4958116;28;20223;-63
2023/03/01 00:18:47;;;;;;;2.90;2.28;;;1.80;99.90;;;;;;4960746;28;20222;-64
2023/03/01 00:21:15;;;;;;;2.22;1.92;;;1.80;99.90;;;;;;4952797;28;20232;-63
2023/03/01 00:23:43;;;;;;;1.95;1.75;;;1.80;99.90;;;;;;4954387;28;20772;-64
2023/03/01 00:26:14;;;;;;;2.95;2.03;;;1.70;99.90;;;;;;4961900;28;20236;-63
2023/03/01 00:28:42;;;;;;;2.53;2.13;;;1.80;99.90;;;;;;4958680;28;20290;-64
2023/03/01 00:31:13;;;;;;;1.88;1.63;;;2.00;99.90;;;;;;4959541;28;20319;-63
2023/03/01 00:33:41;;;;;;;2.30;2.08;;;2.20;99.90;;;;;;4963202;28;20702;-63
2023/03/01 00:36:12;;;;;;;2.85;1.63;;;2.20;99.90;;;;;;4955297;29;20306;-63
2023/03/01 00:38:41;;;;;;;3.85;2.70;;;2.20;99.90;;;;;;4963553;28;20213;-63
2023/03/01 00:41:11;;;;;;;3.13;2.83;;;2.20;99.90;;;;;;4956960;28;20233;-63
2023/03/01 00:43:39;;;;;;;2.55;1.75;;;2.20;99.90;;;;;;4956735;28;20683;-64
2023/03/01 00:46:09;;;;;;;4.18;2.33;;;2.20;99.90;;;;;;4955615;28;20286;-63
2023/03/01 00:48:37;;;;;;;4.63;1.95;;;2.10;99.90;;;;;;4955695;28;20209;-63
2023/03/01 00:51:07;;;;;;;2.88;2.00;;;1.90;99.90;;;;;;4955705;28;20228;-63
2023/03/01 00:53:37;;;;;;;4.18;2.58;;;1.70;99.90;;;;;;4956647;28;20232;-64
2023/03/01 00:56:07;;;;;;;1.52;1.42;;;1.60;99.90;;;;;;4952482;28;20717;-64
2023/03/01 00:58:35;;;;;;;2.67;2.20;;;1.60;99.90;;;;;;4954429;28;20214;-64
2023/03/01 01:01:16;;;;;;;1.80;1.48;;;1.70;99.90;;;;;;4962219;28;20237;-64
2023/03/01 01:03:47;;;;;;;4.90;3.33;;;1.90;99.90;;;;;;4962476;28;20216;-63
2023/03/01 01:06:19;;;;;;;5.05;2.05;;;2.20;99.90;;;;;;4965704;28;20689;-64
2023/03/01 01:08:50;;;;;;;2.17;1.90;;;2.30;99.90;;;;;;4954265;28;20212;-64
2023/03/01 01:11:18;;;;;;;3.42;2.65;;;2.40;99.90;;;;;;4952636;28;20312;-64
2023/03/01 01:13:47;;;;;;;2.35;2.05;;;2.20;99.90;;;;;;4955344;28;20238;-64
2023/03/01 01:16:15;;;;;;;5.82;2.90;;;2.10;99.90;;;;;;4956293;28;20222;-64
2023/03/01 01:18:43;;;;;;;4.38;2.75;;;2.00;99.90;;;;;;4956510;28;20735;-64
2023/03/01 01:21:13;;;;;;;2.15;1.52;;;1.90;99.90;;;;;;4956456;28;20311;-64
2023/03/01 01:23:43;;;;;;;1.98;1.83;;;1.90;99.90;;;;;;4955900;28;20288;-64
2023/03/01 01:26:14;;;;;;;3.60;2.28;;;1.90;99.90;;;;;;4955184;28;20585;-64
2023/03/01 01:28:42;;;;;;;2.15;1.95;;;2.00;99.90;;;;;;4953719;28;20228;-64
2023/03/01 01:31:10;;;;;;;2.75;2.53;;;2.00;99.90;;;;;;4954582;28;20325;-64
2023/03/01 01:33:39;;;;;;;3.42;2.03;;;1.90;99.90;;;;;;4953986;28;20207;-64
2023/03/01 01:36:08;;;;;;;3.38;2.90;;;1.90;99.90;;;;;;4950470;28;20220;-64
2023/03/01 01:38:37;;;;;;;3.67;2.75;;;1.80;99.90;;;;;;4952913;28;20244;-65
2023/03/01 01:41:06;;;;;;;2.80;2.55;;;1.50;99.90;;;;;;4960548;28;20318;-63
2023/03/01 01:43:37;;;;;;;4.57;2.30;;;1.50;99.90;;;;;;4957292;28;20629;-64
2023/03/01 01:46:13;;;;;;;4.00;2.50;;;1.70;99.90;;;;;;4965946;28;20220;-62
2023/03/01 01:48:45;;;;;;;2.40;2.08;;;1.50;99.90;;;;;;4949282;28;20235;-63
2023/03/01 01:51:15;;;;;;;3.92;3.03;;;1.30;99.90;;;;;;4956920;28;20242;-61
2023/03/01 01:53:45;;;;;;;6.03;2.97;;;1.10;99.90;;;;;;4953865;28;20235;-62
2023/03/01 01:56:15;;;;;;;2.58;2.38;;;1.00;99.90;;;;;;4954393;28;20690;-62
2023/03/01 01:58:45;;;;;;;3.45;2.95;;;1.00;99.90;;;;;;4956158;28;20752;-62
2023/03/01 02:01:13;;;;;;;3.38;2.83;;;0.90;99.90;;;;;;4955534;28;20230;-63
2023/03/01 02:03:45;;;;;;;2.30;2.10;;;0.90;99.90;;;;;;4958982;28;21580;-63
2023/03/01 02:06:19;;;;;;;2.05;1.73;;;0.80;99.90;;;;;;4953391;28;20195;-62
2023/03/01 02:08:49;;;;;;;2.55;1.63;;;0.80;99.90;;;;;;4953541;28;20294;-63
2023/03/01 02:11:19;;;;;;;2.55;2.00;;;0.80;99.90;;;;;;4953068;28;20313;-62
2023/03/01 02:13:50;;;;;;;2.40;2.10;;;0.80;99.90;;;;;;4954044;28;20676;-62
2023/03/01 02:16:18;;;;;;;2.72;2.50;;;0.70;99.90;;;;;;4957365;28;20228;-62
2023/03/01 02:18:46;;;;;;;4.00;1.52;;;0.80;99.90;;;;;;4955118;28;20258;-62
2023/03/01 02:21:37;;;;;;;2.55;2.15;;;0.80;99.90;;;;;;4953117;28;20237;-63
2023/03/01 02:24:15;;;;;;;1.48;1.38;;;0.80;99.90;;;;;;4960087;28;20206;-63
2023/03/01 02:26:52;;;;;;;1.90;1.80;;;0.80;99.90;;;;;;4961264;28;20207;-62
2023/03/01 02:29:22;;;;;;;2.10;2.00;;;0.80;99.90;;;;;;4960880;28;20639;-62
2023/03/01 02:31:51;;;;;;;1.42;1.33;;;0.80;99.90;;;;;;4952466;28;20248;-63
2023/03/01 02:34:22;;;;;;;2.65;1.92;;;0.80;99.90;;;;;;4952917;28;20788;-62
2023/03/01 02:36:54;;;;;;;1.30;1.20;;;0.80;99.90;;;;;;4948985;28;20310;-62
2023/03/01 02:39:27;;;;;;;1.73;1.45;;;0.80;99.90;;;;;;4952177;28;20294;-66
2023/03/01 02:41:57;;;;;;;2.17;1.60;;;0.80;99.90;;;;;;4956767;28;20293;-64
2023/03/01 02:44:26;;;;;;;3.17;1.77;;;0.80;99.90;;;;;;4956371;28;20294;-64
2023/03/01 02:46:56;;;;;;;2.78;1.75;;;0.80;99.90;;;;;;4949351;28;20267;-64
2023/03/01 02:49:27;;;;;;;1.73;1.63;;;0.80;99.90;;;;;;4949418;28;21961;-64
2023/03/01 02:52:22;;;;;;;2.08;1.80;;;0.80;99.90;;;;;;4950732;28;20225;-63
2023/03/01 02:54:55;;;;;;;1.13;0.85;;;0.80;99.90;;;;;;4962404;28;20218;-64
2023/03/01 02:57:27;;;;;;;2.03;1.80;;;0.80;99.90;;;;;;4966222;28;20313;-63
2023/03/01 02:59:58;;;;;;;3.15;2.85;;;0.80;99.90;;;;;;4966788;28;20227;-63
2023/03/01 03:02:36;;;;;;;2.30;2.10;;;0.80;99.90;;;;;;4957026;28;20217;-64
2023/03/01 03:05:08;;;;;;;2.72;2.53;;;0.80;99.90;;;;;;4960875;28;20221;-63
2023/03/01 03:07:37;;;;;;;1.98;1.77;;;0.80;99.90;;;;;;4968371;28;20675;-63
2023/03/01 03:10:08;;;;;;;1.73;1.48;;;0.80;99.90;;;;;;4948047;28;20261;-64
2023/03/01 03:12:36;;;;;;;2.72;2.03;;;0.80;99.90;;;;;;4953977;28;20286;-63
2023/03/01 03:15:08;;;;;;;1.80;1.35;;;0.80;99.90;;;;;;4950023;28;20216;-63
2023/03/01 03:17:37;;;;;;;2.00;1.77;;;0.80;99.90;;;;;;4958897;28;20325;-63
2023/03/01 03:20:06;;;;;;;1.38;1.27;;;0.80;99.90;;;;;;4958234;28;20223;-64
2023/03/01 03:22:34;;;;;;;2.45;2.08;;;0.80;99.90;;;;;;4952619;28;20701;-63
2023/03/01 03:25:02;;;;;;;2.20;1.45;;;0.80;99.90;;;;;;4960052;28;20195;-64
2023/03/01 03:27:31;;;;;;;1.85;1.35;;;0.80;99.90;;;;;;4960099;28;20286;-64
2023/03/01 03:29:59;;;;;;;2.08;1.52;;;0.80;99.90;;;;;;4950471;28;20282;-64
2023/03/01 03:32:28;;;;;;;2.78;1.55;;;0.80;99.90;;;;;;4953444;28;20286;-63
2023/03/01 03:34:56;;;;;;;1.52;1.42;;;0.80;99.90;;;;;;4956683;28;20208;-63
2023/03/01 03:40:31;;;;;;;1.63;1.20;;;0.70;99.90;;;;;;4955838;28;20223;-63
2023/03/01 03:42:59;;;;;;;2.47;1.38;;;0.70;99.90;;;;;;4952082;29;20295;-63
2023/03/01 03:45:27;;;;;;;3.90;2.58;;;0.70;99.90;;;;;;4953072;28;20287;-63
2023/03/01 03:47:56;;;;;;;2.33;2.08;;;0.80;99.90;;;;;;4955134;28;20207;-63
2023/03/01 03:50:24;;;;;;;2.03;1.67;;;0.70;99.90;;;;;;4951609;28;20237;-63
2023/03/01 03:52:52;;;;;;;2.40;2.20;;;0.70;99.90;;;;;;4960700;28;20217;-63
2023/03/01 03:55:20;;;;;;;2.08;1.63;;;0.70;99.90;;;;;;4952751;28;20203;-63
2023/03/01 03:57:51;;;;;;;1.98;1.77;;;0.70;99.90;;;;;;4950463;28;20227;-63
2023/03/01 04:00:21;;;;;;;3.40;2.25;;;0.70;99.90;;;;;;4956227;28;20223;-63
2023/03/01 04:02:49;;;;;;;1.90;1.40;;;0.70;99.90;;;;;;4958487;28;20656;-63
2023/03/01 04:05:19;;;;;;;4.75;1.70;;;0.70;99.90;;;;;;4960078;28;20203;-63
2023/03/01 04:07:47;;;;;;;1.95;1.35;;;0.70;99.90;;;;;;4949721;28;20254;-63
2023/03/01 04:10:17;;;;;;;1.55;1.30;;;0.70;99.90;;;;;;4960003;28;20227;-63
2023/03/01 04:12:45;;;;;;;2.13;1.65;;;0.80;99.90;;;;;;4968439;28;20286;-63
2023/03/01 04:15:13;;;;;;;1.80;1.65;;;0.70;99.90;;;;;;4961001;28;20234;-63
2023/03/01 04:17:42;;;;;;;3.13;2.22;;;0.70;99.90;;;;;;4954241;28;20665;-63
2023/03/01 04:20:11;;;;;;;1.35;1.23;;;0.70;99.90;;;;;;4952464;28;20227;-63
2023/03/01 04:22:41;;;;;;;2.55;1.95;;;0.60;99.90;;;;;;4961651;28;20299;-62
2023/03/01 04:25:13;;;;;;;2.97;1.55;;;0.60;99.90;;;;;;4955701;28;20199;-62
2023/03/01 04:27:41;;;;;;;2.50;1.75;;;0.50;99.90;;;;;;4965262;28;20206;-63
2023/03/01 04:30:11;;;;;;;3.00;2.63;;;0.50;99.90;;;;;;4965001;28;20327;-63
2023/03/01 04:32:39;;;;;;;2.28;1.98;;;0.50;99.90;;;;;;4960945;28;20238;-62
2023/03/01 04:35:07;;;;;;;2.53;2.33;;;0.50;99.90;;;;;;4950080;28;20211;-63
2023/03/01 04:37:35;;;;;;;2.67;1.83;;;0.50;99.90;;;;;;4953880;28;20314;-63
2023/03/01 04:40:15;;;;;;;3.15;2.80;;;0.50;99.90;;;;;;4952503;28;20223;-63
2023/03/01 04:42:43;;;;;;;1.17;1.08;;;0.50;99.90;;;;;;4968373;28;20682;-62
2023/03/01 04:45:13;;;;;;;1.40;1.30;;;0.50;99.90;;;;;;4960449;28;20290;-63
2023/03/01 04:47:42;;;;;;;2.58;1.67;;;0.50;99.90;;;;;;4970310;28;20281;-63
2023/03/01 04:50:11;;;;;;;1.55;1.40;;;0.40;99.90;;;;;;4954046;28;20233;-63
2023/03/01 04:52:39;;;;;;;1.60;1.50;;;0.40;99.90;;;;;;4952567;28;20211;-62
2023/03/01 04:55:10;;;;;;;1.48;1.08;;;0.50;99.90;;;;;;4955579;28;20218;-63
2023/03/01 04:57:38;;;;;;;1.98;1.88;;;0.40;99.90;;;;;;4953889;28;20250;-62
2023/03/01 05:00:19;;;;;;;2.83;2.63;;;0.40;99.90;;;;;;4947590;28;20243;-62
2023/03/01 05:02:53;;;;;;;2.17;1.80;;;0.40;99.90;;;;;;4960764;28;20218;-63
2023/03/01 05:05:25;;;;;;;1.83;1.73;;;0.40;99.90;;;;;;4956350;28;20206;-63
2023/03/01 05:08:00;;;;;;;2.33;1.75;;;0.40;99.90;;;;;;4952529;29;20227;-63
2023/03/01 05:10:31;;;;;;;2.03;1.50;;;0.40;99.90;;;;;;4959490;28;20685;-64
2023/03/01 05:12:59;;;;;;;1.80;1.50;;;0.30;99.90;;;;;;4960346;28;20203;-62
2023/03/01 05:15:29;;;;;;;2.92;1.85;;;0.30;99.90;;;;;;4955494;28;20214;-62
2023/03/01 05:17:59;;;;;;;2.92;1.42;;;0.30;99.90;;;;;;4964444;28;20717;-62
2023/03/01 05:20:28;;;;;;;1.65;1.55;;;0.30;99.90;;;;;;4949573;28;20228;-63
2023/03/01 05:23:00;;;;;;;2.75;2.10;;;0.30;99.90;;;;;;4953278;28;20212;-62
2023/03/01 05:25:32;;;;;;;2.15;1.90;;;0.40;99.90;;;;;;4951185;28;20207;-63
2023/03/01 05:28:03;;;;;;;1.77;1.65;;;0.40;99.90;;;;;;4952282;28;20219;-63
2023/03/01 05:30:32;;;;;;;5.13;3.13;;;0.40;99.90;;;;;;5072978;23;20251;-69
2023/03/01 05:33:00;;;;;;;3.63;2.70;;;0.40;99.90;;;;;;4965907;28;20221;-69
2023/03/01 05:35:29;;;;;;;1.13;1.02;;;0.40;99.90;;;;;;4969615;28;20639;-69
2023/03/01 05:37:57;;;;;;;2.90;2.60;;;0.50;99.90;;;;;;4972696;28;20709;-69
2023/03/01 05:40:25;;;;;;;1.80;1.70;;;0.40;99.90;;;;;;4968502;28;20209;-69
2023/03/01 05:42:56;;;;;;;1.65;1.40;;;0.50;99.90;;;;;;4954057;28;20262;-69
2023/03/01 05:45:26;;;;;;;2.38;1.63;;;0.40;99.90;;;;;;4951427;28;20231;-70
2023/03/01 05:47:54;;;;;;;3.47;1.85;;;0.40;99.90;;;;;;4951150;28;20211;-69
2023/03/01 05:50:25;;;;;;;5.38;2.35;;;0.50;99.90;;;;;;4950317;28;20207;-71
2023/03/01 05:52:59;;;;;;;1.63;1.45;;;0.50;99.90;;;;;;4953894;28;20222;-70
2023/03/01 05:55:27;;;;;;;2.33;1.80;;;0.50;99.90;;;;;;4950804;28;20645;-69
2023/03/01 05:57:59;;;;;;;1.45;1.13;;;0.50;99.90;;;;;;4960423;28;20350;-69
2023/03/01 06:00:28;;;;;;;2.30;1.73;;;0.50;99.90;;;;;;4953258;28;20254;-68
2023/03/01 06:02:57;;;;;;;2.60;1.50;;;0.50;99.90;;;;;;4961559;28;20609;-69
2023/03/01 06:05:25;;;;;;;2.08;1.98;;;0.60;99.90;;;;;;4954626;28;20211;-69
2023/03/01 06:07:53;;;;;;;1.85;1.70;;;0.60;99.90;;;;;;4958620;28;20748;-69
2023/03/01 06:10:23;;;;;;;3.00;2.47;;;0.60;99.90;;;;;;4963933;28;20783;-69
2023/03/01 06:12:50;;;;;;;2.33;2.13;;;0.60;99.90;;;;;;4969740;28;20744;-68
2023/03/01 06:15:20;;;;;;;2.55;1.92;;;0.70;99.90;;;;;;4951443;28;20572;-69
2023/03/01 06:17:48;;;;;;;2.85;1.90;;;0.70;99.90;;;;;;4955809;28;20222;-70
2023/03/01 06:20:18;;;;;;;2.17;2.00;;;0.70;99.90;;;;;;4958549;28;20251;-67
2023/03/01 06:22:46;;;;;;;2.53;2.00;;;0.60;99.90;;;;;;4954015;28;20203;-69
2023/03/01 06:25:16;;;;;;;1.70;1.50;;;0.70;99.90;;;;;;4961016;28;20748;-69
2023/03/01 06:27:44;;;;;;;1.98;1.50;;;0.70;99.90;;;;;;4953684;28;20212;-69
2023/03/01 06:30:14;;;;;;;1.75;1.65;;;0.70;99.90;;;;;;4948254;28;20203;-69
2023/03/01 06:32:44;;;;;;;1.65;1.55;;;0.70;99.90;;;;;;4958538;28;20230;-69
2023/03/01 06:35:13;;;;;;;2.40;1.42;;;0.70;99.90;;;;;;4948749;28;20213;-68
2023/03/01 06:37:41;;;;;;;1.73;1.45;;;0.70;99.90;;;;;;4950392;28;20211;-68
2023/03/01 06:40:13;;;;;;;2.42;1.92;;;0.70;99.90;;;;;;4948397;28;20621;-68
2023/03/01 06:42:43;;;;;;;2.35;1.90;;;0.80;99.90;;;;;;4949803;28;20290;-68
2023/03/01 06:45:12;;;;;;;1.60;1.38;;;0.70;99.90;;;;;;4951027;28;20208;-69
2023/03/01 06:47:40;;;;;;;3.17;2.03;;;0.80;99.90;;;;;;4954781;28;20246;-70
2023/03/01 06:50:10;;;;;;;2.63;1.85;;;0.80;99.90;;;;;;4956503;28;20201;-68
2023/03/01 06:52:39;;;;;;;3.17;1.42;;;0.70;99.90;;;;;;4957607;28;20242;-69
2023/03/01 06:55:07;;;;;;;3.20;2.72;;;0.80;99.90;;;;;;4949066;28;20214;-68
2023/03/01 06:57:35;;;;;;;1.73;1.63;;;0.80;99.90;;;;;;4960419;28;20230;-69
2023/03/01 07:00:04;;;;;;;1.65;1.55;;;0.70;99.90;;;;;;4961115;28;20664;-70
2023/03/01 07:02:32;;;;;;;1.15;1.05;;;0.80;99.90;;;;;;4962236;28;20313;-68
2023/03/01 07:05:00;;;;;;;2.53;2.33;;;0.80;99.90;;;;;;4962258;28;20199;-68
2023/03/01 07:07:29;;;;;;;2.05;1.75;;;0.80;99.90;;;;;;4954686;28;20558;-67
2023/03/01 07:09:57;;;;;;;3.40;3.10;;;0.70;99.90;;;;;;4955669;28;20589;-68
2023/03/01 07:12:25;;;;;;;2.67;1.52;;;0.80;99.90;;;;;;4953174;28;20702;-68
2023/03/01 07:14:53;;;;;;;2.58;1.98;;;0.90;99.90;;;;;;4956217;28;20246;-69
2023/03/01 07:17:21;;;;;;;1.90;1.80;;;0.90;99.90;;;;;;4953332;28;20241;-67
2023/03/01 07:19:49;;;;;;;2.45;1.90;;;1.00;99.90;;;;;;4953151;28;20228;-69
2023/03/01 07:22:17;;;;;;;1.95;1.77;;;1.00;99.90;;;;;;4952731;28;20267;-70
2023/03/01 07:24:46;;;;;;;2.03;1.80;;;1.10;99.90;;;;;;4949866;28;20211;-69
2023/03/01 07:27:14;;;;;;;3.80;2.53;;;1.10;99.90;;;;;;4945897;28;20207;-68
2023/03/01 07:29:41;;;;;;;3.15;2.85;;;1.20;99.90;;;;;;4946576;28;20738;-68
2023/03/01 07:32:11;;;;;;;2.20;1.70;;;1.20;99.90;;;;;;4953745;28;20290;-68
2023/03/01 07:34:39;;;;;;;1.65;1.42;;;1.30;99.90;;;;;;4967577;28;20290;-68
2023/03/01 07:37:07;;;;;;;2.00;1.90;;;1.40;99.90;;;;;;4965020;28;20217;-69
2023/03/01 07:39:35;;;;;;;3.13;2.13;;;1.40;99.90;;;;;;4964076;28;20295;-69
2023/03/01 07:42:04;;;;;;;1.40;1.30;;;1.50;99.90;;;;;;4966053;28;20238;-69
2023/03/01 07:44:32;;;;;;;2.42;1.77;;;1.60;99.90;;;;;;4967625;28;20213;-69
2023/03/01 07:46:59;;;;;;;1.48;1.27;;;1.70;99.90;;;;;;4966059;28;20215;-69
2023/03/01 07:49:27;;;;;;;2.17;1.85;;;1.70;99.90;;;;;;4964277;28;20284;-69
2023/03/01 07:51:55;;;;;;;5.30;3.20;;;1.80;99.90;;;;;;4963956;28;20233;-69
2023/03/01 07:54:23;;;;;;;3.67;2.63;;;1.80;99.90;;;;;;4956138;28;20224;-69
2023/03/01 07:56:51;;;;;;;3.88;2.30;;;1.90;99.90;;;;;;4964328;28;20204;-69
2023/03/01 07:59:21;;;;;;;2.55;2.22;;;2.00;99.90;;;;;;4967185;28;20242;-69
2023/03/01 08:01:49;;;;;;;2.75;2.05;;;2.00;99.90;;;;;;4967329;28;20787;-71
2023/03/01 08:04:17;;;;;;;2.38;2.15;;;2.10;99.90;;;;;;4964326;28;20195;-69
2023/03/01 08:06:45;;;;;;;2.83;2.58;;;2.20;99.90;;;;;;4963960;28;20675;-69
2023/03/01 08:09:13;;;;;;;1.95;1.73;;;2.30;99.90;;;;;;4966817;28;20222;-69
2023/03/01 08:11:41;;;;;;;2.10;2.00;;;2.50;99.90;;;;;;4966988;28;20225;-69
2023/03/01 08:14:09;;;;;;;6.22;2.25;;;2.60;99.90;;;;;;4964489;28;20262;-69
2023/03/01 08:16:38;;;;;;;2.45;1.85;;;2.80;99.90;;;;;;4963726;28;20648;-69
2023/03/01 08:19:06;;;;;;;1.95;1.85;;;2.90;99.90;;;;;;4965362;28;20216;-69
2023/03/01 08:21:35;;;;;;;3.80;2.40;;;3.00;99.90;;;;;;4966153;28;20299;-69
2023/03/01 08:24:04;;;;;;;2.30;2.08;;;3.10;99.90;;;;;;4965111;28;20264;-69
2023/03/01 08:26:32;;;;;;;1.88;1.77;;;3.20;99.90;;;;;;4966816;28;20295;-69
2023/03/01 08:29:01;;;;;;;3.05;2.42;;;3.30;99.90;;;;;;4965120;28;20222;-69
2023/03/01 08:31:31;;;;;;;2.28;2.08;;;3.40;99.90;;;;;;4962879;28;20331;-68
2023/03/01 08:34:04;;;;;;;2.97;2.55;;;3.40;99.90;;;;;;4964676;28;20584;-69
2023/03/01 08:36:34;;;;;;;2.33;2.13;;;3.50;99.90;;;;;;4966743;28;20237;-69
2023/03/01 08:39:02;;;;;;;2.60;2.40;;;3.70;99.90;;;;;;4964517;28;20208;-69
2023/03/01 08:41:30;;;;;;;2.88;2.25;;;3.70;99.90;;;;;;4962994;28;20696;-68
2023/03/01 08:43:59;;;;;;;4.15;2.85;;;3.80;99.90;;;;;;4963595;28;20597;-69
2023/03/01 08:46:27;;;;;;;3.50;2.65;;;3.90;99.90;;;;;;4966010;28;20214;-69
2023/03/01 08:48:56;;;;;;;3.55;3.25;;;4.00;99.90;;;;;;4965302;28;20211;-69
2023/03/01 08:51:26;;;;;;;3.08;2.35;;;4.30;99.90;;;;;;4962649;28;20308;-69
2023/03/01 08:53:54;;;;;;;3.05;2.75;;;4.50;99.90;;;;;;4955020;28;20241;-69
2023/03/01 08:56:22;;;;;;;2.97;2.25;;;4.70;99.90;;;;;;4963065;28;20211;-69
2023/03/01 08:58:50;;;;;;;2.45;2.05;;;4.80;99.90;;;;;;4963300;28;20248;-69
2023/03/01 09:01:19;;;;;;;2.30;2.10;;;4.80;99.90;;;;;;4954784;28;20241;-69
2023/03/01 09:03:48;;;;;;;3.75;2.35;;;5.00;99.90;;;;;;4963072;28;20684;-69
2023/03/01 09:06:17;;;;;;;4.03;2.85;;;5.10;99.90;;;;;;4966464;28;20684;-69
2023/03/01 09:08:48;;;;;;;3.65;2.17;;;5.10;99.90;;;;;;4965914;28;20234;-69
2023/03/01 09:11:18;;;;;;;2.40;2.20;;;5.20;99.90;;;;;;4962622;28;20641;-68
2023/03/01 09:13:47;;;;;;;4.80;2.25;;;5.20;99.90;;;;;;4963163;28;20544;-69
2023/03/01 09:16:17;;;;;;;3.90;2.97;;;5.30;99.90;;;;;;4965748;28;20658;-69
2023/03/01 09:18:49;;;;;;;2.90;2.65;;;5.60;99.90;;;;;;4966189;28;20260;-69
2023/03/01 09:21:18;;;;;;;3.05;1.88;;;5.70;99.90;;;;;;4962722;28;20232;-69
2023/03/01 09:24:06;;;;;;;3.08;1.60;;;5.60;99.90;;;;;;4952327;29;20221;-69
2023/03/01 09:26:34;;;;;;;2.30;1.85;;;5.70;99.90;;;;;;4960124;28;20201;-69
2023/03/01 09:29:02;;;;;;;2.97;2.10;;;5.70;99.90;;;;;;4964637;28;20212;-68
2023/03/01 09:31:29;;;;;;;1.70;1.23;;;5.60;99.90;;;;;;4961875;28;20238;-69
2023/03/01 09:33:57;;;;;;;2.45;1.83;;;5.60;99.90;;;;;;4962839;28;20612;-70
2023/03/01 09:36:26;;;;;;;3.03;1.50;;;5.70;99.90;;;;;;4965581;28;20284;-68
2023/03/01 09:38:54;;;;;;;1.85;1.52;;;6.00;99.90;;;;;;4965859;28;20682;-69
2023/03/01 09:41:48;;;;;;;2.28;1.98;;;6.00;99.90;;;;;;4965237;28;20236;-68
2023/03/01 09:44:30;;;;;;;2.42;2.22;;;6.20;99.90;;;;;;4962651;28;20459;-69
2023/03/01 09:47:00;;;;;;;2.13;1.95;;;6.50;99.90;;;;;;4962571;28;20332;-69
2023/03/01 09:49:30;;;;;;;2.15;1.95;;;6.70;99.90;;;;;;4965406;28;20252;-68
2023/03/01 09:52:04;;;;;;;2.65;2.08;;;6.70;99.90;;;;;;4960076;28;20308;-69
2023/03/01 09:54:32;;;;;;;2.97;1.90;;;6.60;99.90;;;;;;4953853;28;20205;-68
2023/03/01 09:57:20;;;;;;;2.95;2.28;;;6.70;99.90;;;;;;4961425;28;20216;-68
2023/03/01 10:00:08;;;;;;;2.95;2.38;;;6.70;99.90;;;;;;4962198;28;20292;-69
2023/03/01 10:02:42;;;;;;;2.33;2.17;;;6.70;99.90;;;;;;4961750;28;20226;-68
2023/03/01 10:05:22;;;;;;;2.80;2.25;;;6.90;99.90;;;;;;4963532;28;20704;-69
2023/03/01 10:07:58;;;;;;;2.92;2.22;;;7.10;99.90;;;;;;4965123;28;20804;-70
2023/03/01 10:10:29;;;;;;;3.03;2.25;;;7.20;99.90;;;;;;4954361;28;20273;-69
2023/03/01 10:13:04;;;;;;;1.83;1.58;;;7.30;99.90;;;;;;4961763;28;20217;-69
2023/03/01 10:15:38;;;;;;;3.15;2.22;;;7.50;99.90;;;;;;4965073;28;20661;-69
2023/03/01 10:18:12;;;;;;;2.63;2.42;;;7.50;99.90;;;;;;4963350;28;20309;-69
2023/03/01 10:20:48;;;;;;;2.28;1.60;;;7.40;99.90;;;;;;4961386;28;20328;-69
2023/03/01 10:23:16;;;;;;;2.95;2.40;;;7.30;99.90;;;;;;4960284;28;20286;-69
2023/03/01 10:25:57;;;;;;;4.30;1.83;;;7.50;99.90;;;;;;4964413;28;20260;-68
2023/03/01 10:28:37;;;;;;;2.50;1.98;;;7.70;99.40;;;;;;4953900;28;20586;-69
2023/03/01 10:31:12;;;;;;;2.55;2.17;;;7.80;99.30;;;;;;4961810;28;20269;-69
2023/03/01 10:33:41;;;;;;;3.13;2.03;;;7.80;99.10;;;;;;4964748;28;20672;-68
2023/03/01 10:36:09;;;;;;;2.78;2.58;;;7.70;99.30;;;;;;4962892;28;20241;-71
2023/03/01 10:38:52;;;;;;;2.80;2.08;;;7.50;99.40;;;;;;4961469;28;20210;-69
2023/03/01 10:41:21;;;;;;;2.55;2.35;;;7.60;99.30;;;;;;4963742;28;20710;-69
2023/03/01 10:43:53;;;;;;;3.10;2.80;;;7.70;99.20;;;;;;4964476;28;20297;-69
2023/03/01 10:46:26;;;;;;;2.45;1.85;;;7.90;99.20;;;;;;4961335;28;20648;-68
2023/03/01 10:49:17;;;;;;;2.95;2.40;;;8.00;98.60;;;;;;4961236;28;20239;-68
2023/03/01 10:51:49;;;;;;;2.15;1.92;;;8.20;98.80;;;;;;4956051;28;20722;-68
2023/03/01 10:54:20;;;;;;;1.65;1.55;;;8.20;98.70;;;;;;4952815;28;20214;-68
2023/03/01 10:56:50;;;;;;;4.38;2.53;;;8.30;98.50;;;;;;4959513;28;20244;-69
2023/03/01 10:59:28;;;;;;;2.25;1.88;;;8.20;98.40;;;;;;4961754;28;20257;-68
2023/03/01 11:02:14;;;;;;;2.45;1.73;;;8.30;98.60;;;;;;4960568;28;20285;-69
2023/03/01 11:05:00;;;;;;;1.33;1.00;;;8.50;97.90;;;;;;4960941;28;20225;-69
2023/03/01 11:07:29;;;;;;;1.60;1.50;;;8.80;98.20;;;;;;4960098;28;20312;-69
2023/03/01 11:09:57;;;;;;;2.42;2.05;;;9.10;97.10;;;;;;4960479;28;20237;-70
2023/03/01 11:12:25;;;;;;;2.00;1.80;;;8.70;97.20;;;;;;4960796;28;20771;-69
2023/03/01 11:14:55;;;;;;;2.97;1.60;;;8.80;96.90;;;;;;4960808;28;20242;-69
2023/03/01 11:17:27;;;;;;;2.80;2.30;;;8.70;97.00;;;;;;4963737;28;20724;-69
2023/03/01 11:20:06;;;;;;;2.08;1.80;;;8.70;97.00;;;;;;4964036;28;20288;-68
2023/03/01 11:22:36;;;;;;;1.88;1.30;;;8.50;96.60;;;;;;4951793;28;20703;-70
2023/03/01 11:25:05;;;;;;;1.83;1.67;;;8.60;96.70;;;;;;4951917;29;20214;-69
2023/03/01 11:27:41;;;;;;;3.67;3.00;;;8.70;96.60;;;;;;4952745;28;20715;-68
2023/03/01 11:30:21;;;;;;;2.47;1.25;;;8.80;96.80;;;;;;4960141;28;20214;-69
2023/03/01 11:32:57;;;;;;;2.08;1.92;;;9.00;96.50;;;;;;4992562;23;20317;-63
2023/03/01 11:35:28;;;;;;;2.88;1.88;;;9.20;96.00;;;;;;4974920;28;20205;-63
2023/03/01 11:38:06;;;;;;;1.13;1.02;;;9.20;95.60;;;;;;4975824;28;20295;-63
2023/03/01 11:40:40;;;;;;;0.85;0.85;;;9.40;95.60;;;;;;4971867;28;20285;-63
2023/03/01 11:43:17;;;;;;;1.58;1.48;;;9.70;95.10;;;;;;4971831;28;20249;-63
2023/03/01 11:46:02;;;;;;;1.55;1.38;;;10.00;94.60;;;;;;4971798;28;20657;-63
2023/03/01 11:48:42;;;;;;;1.92;1.58;;;10.50;93.70;;;;;;4965199;28;20211;-63
2023/03/01 11:51:24;;;;;;;0.85;0.85;;;10.20;93.40;;;;;;4971506;28;20222;-63
2023/03/01 11:54:04;;;;;;;0.85;0.85;;;10.20;93.50;;;;;;4971777;28;20245;-63
2023/03/01 11:56:35;;;;;;;1.38;1.00;;;10.20;93.30;;;;;;4972229;28;20635;-63
2023/03/01 11:59:35;;;;;;;1.50;1.23;;;10.20;93.00;;;;;;4979831;28;20210;-63
2023/03/01 12:02:32;;;;;;;3.28;2.97;;;10.30;93.30;;;;;;4982552;28;20221;-63
2023/03/01 12:05:38;;;;;;;1.40;1.23;;;10.30;92.50;;;;;;4967708;28;20585;-63
2023/03/01 12:08:13;;;;;;;1.38;0.70;;;10.70;92.80;;;;;;4977058;28;20297;-64
2023/03/01 12:10:50;;;;;;;1.45;1.35;;;10.90;91.80;;;;;;4982877;28;20292;-63
2023/03/01 12:13:45;;;;;;;0.70;0.70;;;11.10;91.90;;;;;;4980986;28;20204;-63
2023/03/01 12:16:43;;;;;;;2.60;1.58;;;10.90;91.10;;;;;;4980527;28;20257;-64
2023/03/01 12:19:39;;;;;;;0.90;0.82;;;11.00;90.60;;;;;;4978574;28;20210;-63
2023/03/01 12:22:31;;;;;;;1.65;1.20;;;11.00;90.80;;;;;;4982549;28;20261;-63
2023/03/01 12:25:25;;;;;;;1.02;0.88;;;10.90;90.80;;;;;;4974648;28;20245;-63
2023/03/01 12:28:39;;;;;;;1.30;1.20;;;11.10;90.60;;;;;;4978426;28;20302;-64
2023/03/01 12:31:28;;;;;;;1.05;0.95;;;11.10;90.10;;;;;;4953313;28;20289;-63
2023/03/01 12:34:04;;;;;;;0.80;0.70;;;11.10;90.00;;;;;;4974803;28;20224;-63
2023/03/01 12:36:54;;;;;;;1.30;1.25;;;10.90;90.10;;;;;;4975037;28;20680;-64
2023/03/01 12:39:39;;;;;;;1.63;1.52;;;11.00;89.50;;;;;;4984714;28;20290;-64
2023/03/01 12:42:18;;;;;;;1.00;0.68;;;11.10;90.00;;;;;;4985657;28;20229;-63
2023/03/01 12:45:27;;;;;;;0.82;0.82;;;11.10;88.70;;;;;;4983065;28;20578;-65
2023/03/01 12:48:19;;;;;;;0.90;0.90;;;11.30;88.20;;;;;;4978166;28;20615;-64
2023/03/01 12:50:51;;;;;;;1.27;0.93;;;11.70;88.40;;;;;;4976304;28;20666;-65
2023/03/01 12:53:24;;;;;;;0.70;0.60;;;11.50;87.80;;;;;;4977320;28;20230;-63
2023/03/01 12:55:55;;;;;;;1.23;0.98;;;11.60;87.80;;;;;;4974376;28;20298;-63
2023/03/01 12:58:30;;;;;;;0.80;0.80;;;11.70;87.20;;;;;;4984848;28;20642;-64
2023/03/01 13:01:23;;;;;;;0.93;0.90;;;11.90;86.80;;;;;;4984098;28;20815;-63
2023/03/01 13:04:18;;;;;;;0.77;0.75;;;12.10;86.70;;;;;;4982032;28;20229;-64
2023/03/01 13:06:56;;;;;;;0.68;0.55;;;12.10;85.40;;;;;;4953599;28;20599;-64
2023/03/01 13:09:31;;;;;;;0.77;0.77;;;11.80;85.70;;;;;;4984605;28;20293;-63
2023/03/01 13:11:58;;;;;;;2.45;2.10;;;12.00;84.10;;;;;;4985264;28;20236;-64
2023/03/01 13:14:45;;;;;;;1.48;0.68;;;11.90;84.10;;;;;;4982310;28;20240;-64
2023/03/01 13:17:42;;;;;;;0.90;0.90;;;11.70;84.90;;;;;;4982563;28;20744;-63
2023/03/01 13:20:17;;;;;;;0.65;0.65;;;11.20;84.30;;;;;;4984445;28;20300;-63
2023/03/01 13:22:47;;;;;;;1.60;1.50;;;11.20;85.70;;;;;;4981855;28;20606;-63
2023/03/01 13:25:23;;;;;;;1.25;1.13;;;11.40;86.40;;;;;;4974763;28;20302;-64